sensor_id;sensor_type;location;lat;lon;timestamp;temperature;humidity
4655;DHT22;2340;47.814;9.798;2023-06-24T00:02:15;16.40;99.90
4655;DHT22;2340;47.814;9.798;2023-06-24T00:04:41;16.30;99.90
4655;DHT22;2340;47.814;9.798;2023-06-24T00:07:07;16.30;99.90
4655;DHT22;2340;47.814;9.798;2023-06-24T00:09:32;16.30;99.90
4655;DHT22;2340;47.814;9.798;2023-06-24T00:11:58;16.30;99.90
4655;DHT22;2340;47.814;9.798;2023-06-24T00:14:25;16.20;99.90
4655;DHT22;2340;47.814;9.798;2023-06-24T00:16:52;16.20;99.90
4655;DHT22;2340;47.814;9.798;2023-06-24T00:19:24;16.20;99.90
4655;DHT22;2340;47.814;9.798;2023-06-24T00:21:51;16.10;99.90
4655;DHT22;2340;47.814;9.798;2023-06-24T00:24:18;16.20;99.90
4655;DHT22;2340;47.814;9.798;2023-06-24T00:26:46;16.10;99.90
4655;DHT22;2340;47.814;9.798;2023-06-24T00:29:11;16.10;99.90
4655;DHT22;2340;47.814;9.798;2023-06-24T00:31:37;16.10;99.90
4655;DHT22;2340;47.814;9.798;2023-06-24T00:34:02;16.10;99.90
4655;DHT22;2340;47.814;9.798;2023-06-24T00:36:28;16.10;99.90
4655;DHT22;2340;47.814;9.798;2023-06-24T00:38:55;16.10;99.90
4655;DHT22;2340;47.814;9.798;2023-06-24T00:41:22;16.00;99.90
4655;DHT22;2340;47.814;9.798;2023-06-24T00:43:48;16.00;99.90
4655;DHT22;2340;47.814;9.798;2023-06-24T00:46:13;16.00;99.90
4655;DHT22;2340;47.814;9.798;2023-06-24T00:48:40;15.90;99.90
4655;DHT22;2340;47.814;9.798;2023-06-24T00:51:06;16.00;99.90
4655;DHT22;2340;47.814;9.798;2023-06-24T00:53:32;15.90;99.90
4655;DHT22;2340;47.814;9.798;2023-06-24T00:55:58;15.90;99.90
4655;DHT22;2340;47.814;9.798;2023-06-24T00:58:31;15.90;99.90
4655;DHT22;2340;47.814;9.798;2023-06-24T01:00:58;15.80;99.90
4655;DHT22;2340;47.814;9.798;2023-06-24T01:03:25;15.80;99.90
4655;DHT22;2340;47.814;9.798;2023-06-24T01:05:51;15.70;99.90
4655;DHT22;2340;47.814;9.798;2023-06-24T01:08:17;15.70;99.90
4655;DHT22;2340;47.814;9.798;2023-06-24T01:10:45;15.70;99.90
4655;DHT22;2340;47.814;9.798;2023-06-24T01:13:11;15.80;99.90
4655;DHT22;2340;47.814;9.798;2023-06-24T01:15:37;15.80;99.90
4655;DHT22;2340;47.814;9.798;2023-06-24T01:20:41;15.80;99.90
4655;DHT22;2340;47.814;9.798;2023-06-24T01:31:41;16.00;99.90
4655;DHT22;2340;47.814;9.798;2023-06-24T01:37:41;16.10;99.90
4655;DHT22;2340;47.814;9.798;2023-06-24T01:39:54;16.10;99.90
4655;DHT22;2340;47.814;9.798;2023-06-24T01:42:21;16.10;99.90
4655;DHT22;2340;47.814;9.798;2023-06-24T01:44:48;16.10;99.90
4655;DHT22;2340;47.814;9.798;2023-06-24T01:47:18;16.10;99.90
4655;DHT22;2340;47.814;9.798;2023-06-24T01:49:45;16.20;99.90
4655;DHT22;2340;47.814;9.798;2023-06-24T01:52:12;16.30;99.90
4655;DHT22;2340;47.814;9.798;2023-06-24T01:54:39;16.30;99.90
4655;DHT22;2340;47.814;9.798;2023-06-24T01:57:08;16.30;99.90
4655;DHT22;2340;47.814;9.798;2023-06-24T01:59:38;16.30;99.90
4655;DHT22;2340;47.814;9.798;2023-06-24T02:02:06;16.40;99.90
4655;DHT22;2340;47.814;9.798;2023-06-24T02:04:34;16.40;99.90
4655;DHT22;2340;47.814;9.798;2023-06-24T02:07:02;16.50;99.90
4655;DHT22;2340;47.814;9.798;2023-06-24T02:09:29;16.50;99.90
4655;DHT22;2340;47.814;9.798;2023-06-24T02:12:01;16.40;99.90
4655;DHT22;2340;47.814;9.798;2023-06-24T02:14:29;16.50;99.90
4655;DHT22;2340;47.814;9.798;2023-06-24T02:16:57;16.40;99.90
4655;DHT22;2340;47.814;9.798;2023-06-24T02:19:28;16.40;99.90
4655;DHT22;2340;47.814;9.798;2023-06-24T02:21:56;16.40;99.90
4655;DHT22;2340;47.814;9.798;2023-06-24T02:24:22;16.40;99.90
4655;DHT22;2340;47.814;9.798;2023-06-24T02:26:48;16.40;99.90
4655;DHT22;2340;47.814;9.798;2023-06-24T02:29:15;16.40;99.90
4655;DHT22;2340;47.814;9.798;2023-06-24T02:31:41;16.30;99.90
4655;DHT22;2340;47.814;9.798;2023-06-24T02:34:06;16.30;99.90
4655;DHT22;2340;47.814;9.798;2023-06-24T02:36:32;16.40;99.90
4655;DHT22;2340;47.814;9.798;2023-06-24T02:38:58;16.40;99.90
4655;DHT22;2340;47.814;9.798;2023-06-24T02:41:23;16.40;99.90
4655;DHT22;2340;47.814;9.798;2023-06-24T02:43:49;16.40;99.90
4655;DHT22;2340;47.814;9.798;2023-06-24T02:46:15;16.50;99.90
4655;DHT22;2340;47.814;9.798;2023-06-24T02:48:42;16.40;99.90
4655;DHT22;2340;47.814;9.798;2023-06-24T02:51:11;16.40;99.90
4655;DHT22;2340;47.814;9.798;2023-06-24T02:53:38;16.40;99.90
4655;DHT22;2340;47.814;9.798;2023-06-24T02:56:04;16.40;99.90
4655;DHT22;2340;47.814;9.798;2023-06-24T02:58:31;16.40;99.90
4655;DHT22;2340;47.814;9.798;2023-06-24T03:00:59;16.40;99.90
4655;DHT22;2340;47.814;9.798;2023-06-24T03:03:26;16.40;99.90
4655;DHT22;2340;47.814;9.798;2023-06-24T03:05:54;16.50;99.90
4655;DHT22;2340;47.814;9.798;2023-06-24T03:08:22;16.50;99.90
4655;DHT22;2340;47.814;9.798;2023-06-24T03:10:50;16.50;99.90
4655;DHT22;2340;47.814;9.798;2023-06-24T03:13:16;16.50;99.90
4655;DHT22;2340;47.814;9.798;2023-06-24T03:15:41;16.50;99.90
4655;DHT22;2340;47.814;9.798;2023-06-24T03:18:07;16.40;99.90
4655;DHT22;2340;47.814;9.798;2023-06-24T03:20:35;16.50;99.90
4655;DHT22;2340;47.814;9.798;2023-06-24T03:23:04;16.60;99.90
4655;DHT22;2340;47.814;9.798;2023-06-24T03:25:30;16.60;99.90
4655;DHT22;2340;47.814;9.798;2023-06-24T03:27:55;16.60;99.90
4655;DHT22;2340;47.814;9.798;2023-06-24T03:30:21;16.70;99.90
4655;DHT22;2340;47.814;9.798;2023-06-24T03:32:47;16.60;99.90
4655;DHT22;2340;47.814;9.798;2023-06-24T03:35:13;16.70;99.90
4655;DHT22;2340;47.814;9.798;2023-06-24T03:37:39;16.70;99.90
4655;DHT22;2340;47.814;9.798;2023-06-24T03:40:05;16.70;99.90
4655;DHT22;2340;47.814;9.798;2023-06-24T03:42:31;16.70;99.90
4655;DHT22;2340;47.814;9.798;2023-06-24T03:44:56;16.70;99.90
4655;DHT22;2340;47.814;9.798;2023-06-24T03:47:22;16.70;99.90
4655;DHT22;2340;47.814;9.798;2023-06-24T03:49:48;16.70;99.90
4655;DHT22;2340;47.814;9.798;2023-06-24T03:52:13;16.70;99.90
4655;DHT22;2340;47.814;9.798;2023-06-24T03:54:39;16.70;99.90
4655;DHT22;2340;47.814;9.798;2023-06-24T03:57:06;16.70;99.90
4655;DHT22;2340;47.814;9.798;2023-06-24T03:59:32;16.70;99.90
4655;DHT22;2340;47.814;9.798;2023-06-24T04:01:58;16.70;99.90
4655;DHT22;2340;47.814;9.798;2023-06-24T04:04:23;16.70;99.90
4655;DHT22;2340;47.814;9.798;2023-06-24T04:06:49;16.70;99.90
4655;DHT22;2340;47.814;9.798;2023-06-24T04:09:14;16.70;99.90
4655;DHT22;2340;47.814;9.798;2023-06-24T04:11:40;16.70;99.90
4655;DHT22;2340;47.814;9.798;2023-06-24T04:14:06;16.80;99.90
4655;DHT22;2340;47.814;9.798;2023-06-24T04:16:32;16.80;99.90
4655;DHT22;2340;47.814;9.798;2023-06-24T04:18:58;16.80;99.90
4655;DHT22;2340;47.814;9.798;2023-06-24T04:21:24;16.80;99.90
4655;DHT22;2340;47.814;9.798;2023-06-24T04:23:51;16.70;99.90
4655;DHT22;2340;47.814;9.798;2023-06-24T04:26:16;16.70;99.90
4655;DHT22;2340;47.814;9.798;2023-06-24T04:28:42;16.70;99.90
4655;DHT22;2340;47.814;9.798;2023-06-24T04:31:07;16.80;99.90
4655;DHT22;2340;47.814;9.798;2023-06-24T04:33:33;16.80;99.90
4655;DHT22;2340;47.814;9.798;2023-06-24T04:35:58;16.80;99.90
4655;DHT22;2340;47.814;9.798;2023-06-24T04:38:25;16.80;99.90
4655;DHT22;2340;47.814;9.798;2023-06-24T04:40:50;16.80;99.90
4655;DHT22;2340;47.814;9.798;2023-06-24T04:43:16;16.80;99.90
4655;DHT22;2340;47.814;9.798;2023-06-24T04:45:41;16.80;99.90
4655;DHT22;2340;47.814;9.798;2023-06-24T04:48:07;16.80;99.90
4655;DHT22;2340;47.814;9.798;2023-06-24T04:50:33;16.80;99.90
4655;DHT22;2340;47.814;9.798;2023-06-24T04:52:58;16.80;99.90
4655;DHT22;2340;47.814;9.798;2023-06-24T04:55:24;16.90;99.90
4655;DHT22;2340;47.814;9.798;2023-06-24T04:57:49;16.80;99.90
4655;DHT22;2340;47.814;9.798;2023-06-24T05:00:15;16.80;99.90
4655;DHT22;2340;47.814;9.798;2023-06-24T05:02:41;16.80;99.90
4655;DHT22;2340;47.814;9.798;2023-06-24T05:05:07;16.80;99.90
4655;DHT22;2340;47.814;9.798;2023-06-24T05:07:32;16.80;99.90
4655;DHT22;2340;47.814;9.798;2023-06-24T05:09:58;16.80;99.90
4655;DHT22;2340;47.814;9.798;2023-06-24T05:12:24;16.80;99.90
4655;DHT22;2340;47.814;9.798;2023-06-24T05:14:50;16.80;99.90
4655;DHT22;2340;47.814;9.798;2023-06-24T05:17:18;16.90;99.90
4655;DHT22;2340;47.814;9.798;2023-06-24T05:19:43;16.90;99.90
4655;DHT22;2340;47.814;9.798;2023-06-24T05:22:09;16.90;99.90
4655;DHT22;2340;47.814;9.798;2023-06-24T05:24:35;16.90;99.90
4655;DHT22;2340;47.814;9.798;2023-06-24T05:27:04;17.00;99.90
4655;DHT22;2340;47.814;9.798;2023-06-24T05:29:34;17.00;99.90
4655;DHT22;2340;47.814;9.798;2023-06-24T05:31:59;17.00;99.90
4655;DHT22;2340;47.814;9.798;2023-06-24T05:34:27;17.00;99.90
4655;DHT22;2340;47.814;9.798;2023-06-24T05:36:52;17.00;99.90
4655;DHT22;2340;47.814;9.798;2023-06-24T05:39:19;17.10;99.90
4655;DHT22;2340;47.814;9.798;2023-06-24T05:41:45;17.10;99.90
4655;DHT22;2340;47.814;9.798;2023-06-24T05:44:11;17.10;99.90
4655;DHT22;2340;47.814;9.798;2023-06-24T05:46:36;17.10;99.90
4655;DHT22;2340;47.814;9.798;2023-06-24T05:49:02;17.10;99.90
4655;DHT22;2340;47.814;9.798;2023-06-24T05:51:28;17.20;99.90
4655;DHT22;2340;47.814;9.798;2023-06-24T05:53:53;17.20;99.90
4655;DHT22;2340;47.814;9.798;2023-06-24T05:56:20;17.30;99.90
4655;DHT22;2340;47.814;9.798;2023-06-24T05:58:46;17.40;99.90
4655;DHT22;2340;47.814;9.798;2023-06-24T06:01:11;17.50;99.90
4655;DHT22;2340;47.814;9.798;2023-06-24T06:03:37;17.50;99.90
4655;DHT22;2340;47.814;9.798;2023-06-24T06:06:03;17.60;99.90
4655;DHT22;2340;47.814;9.798;2023-06-24T06:08:28;17.60;99.90
4655;DHT22;2340;47.814;9.798;2023-06-24T06:10:54;17.80;99.90
4655;DHT22;2340;47.814;9.798;2023-06-24T06:13:19;17.90;99.90
4655;DHT22;2340;47.814;9.798;2023-06-24T06:15:45;18.10;99.90
4655;DHT22;2340;47.814;9.798;2023-06-24T06:18:11;18.10;99.90
4655;DHT22;2340;47.814;9.798;2023-06-24T06:20:37;18.20;99.90
4655;DHT22;2340;47.814;9.798;2023-06-24T06:23:03;18.20;99.90
4655;DHT22;2340;47.814;9.798;2023-06-24T06:25:28;18.30;99.90
4655;DHT22;2340;47.814;9.798;2023-06-24T06:27:54;18.30;99.90
4655;DHT22;2340;47.814;9.798;2023-06-24T06:30:20;18.40;99.90
4655;DHT22;2340;47.814;9.798;2023-06-24T06:32:45;18.40;99.90
4655;DHT22;2340;47.814;9.798;2023-06-24T06:35:11;18.40;99.90
4655;DHT22;2340;47.814;9.798;2023-06-24T06:37:37;18.40;99.90
4655;DHT22;2340;47.814;9.798;2023-06-24T06:40:02;18.40;99.90
4655;DHT22;2340;47.814;9.798;2023-06-24T06:42:29;18.40;99.90
4655;DHT22;2340;47.814;9.798;2023-06-24T06:44:55;18.40;99.90
4655;DHT22;2340;47.814;9.798;2023-06-24T06:47:20;18.40;99.90
4655;DHT22;2340;47.814;9.798;2023-06-24T06:49:46;18.40;99.90
4655;DHT22;2340;47.814;9.798;2023-06-24T06:52:12;18.50;99.90
4655;DHT22;2340;47.814;9.798;2023-06-24T06:54:37;18.50;99.90
4655;DHT22;2340;47.814;9.798;2023-06-24T06:57:03;18.60;99.90
4655;DHT22;2340;47.814;9.798;2023-06-24T06:59:30;18.60;99.90
4655;DHT22;2340;47.814;9.798;2023-06-24T07:01:56;18.60;99.90
4655;DHT22;2340;47.814;9.798;2023-06-24T07:04:21;18.60;99.90
4655;DHT22;2340;47.814;9.798;2023-06-24T07:06:47;18.60;99.90
4655;DHT22;2340;47.814;9.798;2023-06-24T07:09:13;18.60;99.90
4655;DHT22;2340;47.814;9.798;2023-06-24T07:11:38;18.60;99.90
4655;DHT22;2340;47.814;9.798;2023-06-24T07:14:04;18.60;99.90
4655;DHT22;2340;47.814;9.798;2023-06-24T07:16:29;18.70;99.90
4655;DHT22;2340;47.814;9.798;2023-06-24T07:18:55;18.80;99.90
4655;DHT22;2340;47.814;9.798;2023-06-24T07:21:21;18.80;99.90
4655;DHT22;2340;47.814;9.798;2023-06-24T07:23:47;18.90;99.90
4655;DHT22;2340;47.814;9.798;2023-06-24T07:26:13;19.00;99.90
4655;DHT22;2340;47.814;9.798;2023-06-24T07:28:38;19.10;99.90
4655;DHT22;2340;47.814;9.798;2023-06-24T07:31:04;19.20;99.90
4655;DHT22;2340;47.814;9.798;2023-06-24T07:33:30;19.20;99.90
4655;DHT22;2340;47.814;9.798;2023-06-24T07:35:56;19.20;99.90
4655;DHT22;2340;47.814;9.798;2023-06-24T07:38:22;19.20;99.90
4655;DHT22;2340;47.814;9.798;2023-06-24T07:40:48;19.30;99.90
4655;DHT22;2340;47.814;9.798;2023-06-24T07:43:14;19.40;99.90
4655;DHT22;2340;47.814;9.798;2023-06-24T07:45:39;19.40;99.90
4655;DHT22;2340;47.814;9.798;2023-06-24T07:48:05;19.40;99.90
4655;DHT22;2340;47.814;9.798;2023-06-24T07:50:32;19.40;99.90
4655;DHT22;2340;47.814;9.798;2023-06-24T07:52:58;19.40;99.90
4655;DHT22;2340;47.814;9.798;2023-06-24T07:55:23;19.30;99.90
4655;DHT22;2340;47.814;9.798;2023-06-24T07:57:49;19.30;99.90
4655;DHT22;2340;47.814;9.798;2023-06-24T08:00:15;19.40;99.90
4655;DHT22;2340;47.814;9.798;2023-06-24T08:02:41;19.50;99.90
4655;DHT22;2340;47.814;9.798;2023-06-24T08:05:07;19.60;99.90
4655;DHT22;2340;47.814;9.798;2023-06-24T08:07:34;19.70;99.90
4655;DHT22;2340;47.814;9.798;2023-06-24T08:10:00;19.70;99.90
4655;DHT22;2340;47.814;9.798;2023-06-24T08:12:26;19.70;99.90
4655;DHT22;2340;47.814;9.798;2023-06-24T08:14:52;19.70;99.90
4655;DHT22;2340;47.814;9.798;2023-06-24T08:17:17;19.80;99.90
4655;DHT22;2340;47.814;9.798;2023-06-24T08:19:43;19.90;99.90
4655;DHT22;2340;47.814;9.798;2023-06-24T08:22:08;20.00;99.90
4655;DHT22;2340;47.814;9.798;2023-06-24T08:24:34;20.00;99.90
4655;DHT22;2340;47.814;9.798;2023-06-24T08:27:00;20.10;99.90
4655;DHT22;2340;47.814;9.798;2023-06-24T08:29:25;20.20;99.90
4655;DHT22;2340;47.814;9.798;2023-06-24T08:31:51;20.30;99.90
4655;DHT22;2340;47.814;9.798;2023-06-24T08:34:16;20.30;99.90
4655;DHT22;2340;47.814;9.798;2023-06-24T08:36:42;20.40;99.90
4655;DHT22;2340;47.814;9.798;2023-06-24T08:39:08;20.50;99.90
4655;DHT22;2340;47.814;9.798;2023-06-24T08:41:33;20.50;99.90
4655;DHT22;2340;47.814;9.798;2023-06-24T08:43:59;20.60;99.90
4655;DHT22;2340;47.814;9.798;2023-06-24T08:46:25;20.60;99.90
4655;DHT22;2340;47.814;9.798;2023-06-24T08:49:04;20.70;99.90
4655;DHT22;2340;47.814;9.798;2023-06-24T08:51:39;20.70;99.90
4655;DHT22;2340;47.814;9.798;2023-06-24T08:54:08;20.70;99.90
4655;DHT22;2340;47.814;9.798;2023-06-24T08:56:35;20.60;99.90
4655;DHT22;2340;47.814;9.798;2023-06-24T08:59:07;20.70;99.90
4655;DHT22;2340;47.814;9.798;2023-06-24T09:01:34;20.70;99.90
4655;DHT22;2340;47.814;9.798;2023-06-24T09:03:59;20.80;99.90
4655;DHT22;2340;47.814;9.798;2023-06-24T09:06:25;20.70;99.90
4655;DHT22;2340;47.814;9.798;2023-06-24T09:08:54;20.80;99.90
4655;DHT22;2340;47.814;9.798;2023-06-24T09:11:27;20.90;99.90
4655;DHT22;2340;47.814;9.798;2023-06-24T09:13:59;20.90;99.90
4655;DHT22;2340;47.814;9.798;2023-06-24T09:16:26;21.10;99.90
4655;DHT22;2340;47.814;9.798;2023-06-24T09:18:53;21.20;99.90
4655;DHT22;2340;47.814;9.798;2023-06-24T09:21:23;21.20;99.90
4655;DHT22;2340;47.814;9.798;2023-06-24T09:23:58;21.20;99.90
4655;DHT22;2340;47.814;9.798;2023-06-24T09:26:24;21.30;99.90
4655;DHT22;2340;47.814;9.798;2023-06-24T09:28:50;21.40;99.90
4655;DHT22;2340;47.814;9.798;2023-06-24T09:31:17;21.50;99.90
4655;DHT22;2340;47.814;9.798;2023-06-24T09:33:43;21.60;99.90
4655;DHT22;2340;47.814;9.798;2023-06-24T09:36:13;21.70;99.90
4655;DHT22;2340;47.814;9.798;2023-06-24T09:38:41;21.70;99.90
4655;DHT22;2340;47.814;9.798;2023-06-24T09:41:08;21.80;99.90
4655;DHT22;2340;47.814;9.798;2023-06-24T09:43:37;21.80;99.90
4655;DHT22;2340;47.814;9.798;2023-06-24T09:46:06;21.90;99.90
4655;DHT22;2340;47.814;9.798;2023-06-24T09:48:33;22.00;99.90
4655;DHT22;2340;47.814;9.798;2023-06-24T09:51:03;22.00;99.90
4655;DHT22;2340;47.814;9.798;2023-06-24T09:53:34;22.00;99.90
4655;DHT22;2340;47.814;9.798;2023-06-24T09:56:01;22.00;99.90
4655;DHT22;2340;47.814;9.798;2023-06-24T09:58:36;22.00;99.90
4655;DHT22;2340;47.814;9.798;2023-06-24T10:01:03;22.00;99.90
4655;DHT22;2340;47.814;9.798;2023-06-24T10:03:32;22.00;99.90
4655;DHT22;2340;47.814;9.798;2023-06-24T10:06:00;22.00;99.90
4655;DHT22;2340;47.814;9.798;2023-06-24T10:08:27;21.90;99.90
4655;DHT22;2340;47.814;9.798;2023-06-24T10:10:52;22.00;99.90
4655;DHT22;2340;47.814;9.798;2023-06-24T10:13:18;22.10;99.90
4655;DHT22;2340;47.814;9.798;2023-06-24T10:15:44;22.30;99.90
4655;DHT22;2340;47.814;9.798;2023-06-24T10:20:57;22.50;99.90
4655;DHT22;2340;47.814;9.798;2023-06-24T10:23:39;22.50;99.90
4655;DHT22;2340;47.814;9.798;2023-06-24T10:26:09;22.60;99.90
4655;DHT22;2340;47.814;9.798;2023-06-24T10:37:11;23.10;99.90
4655;DHT22;2340;47.814;9.798;2023-06-24T10:47:48;23.00;99.90
4655;DHT22;2340;47.814;9.798;2023-06-24T10:50:17;23.10;99.90
4655;DHT22;2340;47.814;9.798;2023-06-24T10:52:48;23.20;99.90
4655;DHT22;2340;47.814;9.798;2023-06-24T10:55:16;23.40;99.90
4655;DHT22;2340;47.814;9.798;2023-06-24T10:57:42;23.50;99.90
4655;DHT22;2340;47.814;9.798;2023-06-24T11:00:09;23.50;99.90
4655;DHT22;2340;47.814;9.798;2023-06-24T11:02:34;23.60;99.90
4655;DHT22;2340;47.814;9.798;2023-06-24T11:05:03;23.50;99.90
4655;DHT22;2340;47.814;9.798;2023-06-24T11:07:39;23.60;99.90
4655;DHT22;2340;47.814;9.798;2023-06-24T11:10:09;23.50;99.90
4655;DHT22;2340;47.814;9.798;2023-06-24T11:12:37;23.60;99.90
4655;DHT22;2340;47.814;9.798;2023-06-24T11:17:29;23.70;99.90
4655;DHT22;2340;47.814;9.798;2023-06-24T11:19:55;23.80;99.90
4655;DHT22;2340;47.814;9.798;2023-06-24T11:22:22;23.90;99.90
4655;DHT22;2340;47.814;9.798;2023-06-24T11:24:48;24.00;99.90
4655;DHT22;2340;47.814;9.798;2023-06-24T11:27:14;24.00;99.90
4655;DHT22;2340;47.814;9.798;2023-06-24T11:29:40;24.10;99.90
4655;DHT22;2340;47.814;9.798;2023-06-24T11:32:09;24.30;99.90
4655;DHT22;2340;47.814;9.798;2023-06-24T11:34:35;24.40;99.90
4655;DHT22;2340;47.814;9.798;2023-06-24T11:37:12;24.50;99.90
4655;DHT22;2340;47.814;9.798;2023-06-24T11:39:38;24.70;99.90
4655;DHT22;2340;47.814;9.798;2023-06-24T11:42:06;25.00;99.90
4655;DHT22;2340;47.814;9.798;2023-06-24T11:44:33;25.20;99.90
4655;DHT22;2340;47.814;9.798;2023-06-24T11:47:09;25.60;99.90
4655;DHT22;2340;47.814;9.798;2023-06-24T11:49:51;26.10;99.90
4655;DHT22;2340;47.814;9.798;2023-06-24T11:52:18;26.90;99.90
4655;DHT22;2340;47.814;9.798;2023-06-24T11:54:43;27.50;99.90
4655;DHT22;2340;47.814;9.798;2023-06-24T11:57:09;28.10;99.90
4655;DHT22;2340;47.814;9.798;2023-06-24T11:59:35;28.40;99.90
4655;DHT22;2340;47.814;9.798;2023-06-24T12:02:01;28.30;98.50
4655;DHT22;2340;47.814;9.798;2023-06-24T12:04:32;28.40;98.90
4655;DHT22;2340;47.814;9.798;2023-06-24T12:06:59;28.70;97.80
4655;DHT22;2340;47.814;9.798;2023-06-24T12:09:25;29.00;97.30
4655;DHT22;2340;47.814;9.798;2023-06-24T12:11:51;29.20;96.70
4655;DHT22;2340;47.814;9.798;2023-06-24T12:14:17;29.20;96.80
4655;DHT22;2340;47.814;9.798;2023-06-24T12:16:43;29.00;97.10
4655;DHT22;2340;47.814;9.798;2023-06-24T12:19:08;29.10;96.50
4655;DHT22;2340;47.814;9.798;2023-06-24T12:21:35;29.30;95.60
4655;DHT22;2340;47.814;9.798;2023-06-24T12:24:01;29.80;95.70
4655;DHT22;2340;47.814;9.798;2023-06-24T12:26:27;30.20;96.90
4655;DHT22;2340;47.814;9.798;2023-06-24T12:28:56;30.40;93.20
4655;DHT22;2340;47.814;9.798;2023-06-24T12:31:22;30.00;92.70
4655;DHT22;2340;47.814;9.798;2023-06-24T12:33:48;29.90;94.00
4655;DHT22;2340;47.814;9.798;2023-06-24T12:36:13;30.10;93.70
4655;DHT22;2340;47.814;9.798;2023-06-24T12:38:39;30.20;92.40
4655;DHT22;2340;47.814;9.798;2023-06-24T12:41:05;30.60;94.10
4655;DHT22;2340;47.814;9.798;2023-06-24T12:43:32;30.80;93.50
4655;DHT22;2340;47.814;9.798;2023-06-24T12:45:58;30.70;92.40
4655;DHT22;2340;47.814;9.798;2023-06-24T12:48:24;30.10;92.10
4655;DHT22;2340;47.814;9.798;2023-06-24T12:50:50;30.20;91.50
4655;DHT22;2340;47.814;9.798;2023-06-24T12:53:19;30.50;91.80
4655;DHT22;2340;47.814;9.798;2023-06-24T12:55:45;30.70;92.70
4655;DHT22;2340;47.814;9.798;2023-06-24T12:58:12;30.80;92.40
4655;DHT22;2340;47.814;9.798;2023-06-24T13:00:38;30.80;91.60
4655;DHT22;2340;47.814;9.798;2023-06-24T13:03:04;30.30;91.80
4655;DHT22;2340;47.814;9.798;2023-06-24T13:05:30;29.90;91.50
4655;DHT22;2340;47.814;9.798;2023-06-24T13:07:55;29.20;92.60
4655;DHT22;2340;47.814;9.798;2023-06-24T13:10:21;29.00;92.60
4655;DHT22;2340;47.814;9.798;2023-06-24T13:12:47;29.30;92.50
4655;DHT22;2340;47.814;9.798;2023-06-24T13:15:12;29.20;92.20
4655;DHT22;2340;47.814;9.798;2023-06-24T13:17:39;29.30;92.80
4655;DHT22;2340;47.814;9.798;2023-06-24T13:20:05;29.90;92.80
4655;DHT22;2340;47.814;9.798;2023-06-24T13:22:30;30.40;92.00
4655;DHT22;2340;47.814;9.798;2023-06-24T13:24:57;30.30;91.90
4655;DHT22;2340;47.814;9.798;2023-06-24T13:27:22;30.00;91.10
4655;DHT22;2340;47.814;9.798;2023-06-24T13:29:48;30.20;92.10
4655;DHT22;2340;47.814;9.798;2023-06-24T13:32:13;30.70;91.40
4655;DHT22;2340;47.814;9.798;2023-06-24T13:34:39;31.00;90.30
4655;DHT22;2340;47.814;9.798;2023-06-24T13:37:05;31.30;90.60
4655;DHT22;2340;47.814;9.798;2023-06-24T13:39:30;31.50;89.40
4655;DHT22;2340;47.814;9.798;2023-06-24T13:41:57;31.60;90.00
4655;DHT22;2340;47.814;9.798;2023-06-24T13:44:23;31.50;90.50
4655;DHT22;2340;47.814;9.798;2023-06-24T13:46:49;31.10;90.00
4655;DHT22;2340;47.814;9.798;2023-06-24T13:49:16;30.70;90.40
4655;DHT22;2340;47.814;9.798;2023-06-24T13:51:41;30.80;89.90
4655;DHT22;2340;47.814;9.798;2023-06-24T13:54:07;30.90;90.20
4655;DHT22;2340;47.814;9.798;2023-06-24T13:56:33;31.20;91.30
4655;DHT22;2340;47.814;9.798;2023-06-24T13:58:59;31.40;88.80
4655;DHT22;2340;47.814;9.798;2023-06-24T14:01:25;31.40;88.60
4655;DHT22;2340;47.814;9.798;2023-06-24T14:03:54;31.60;88.60
4655;DHT22;2340;47.814;9.798;2023-06-24T14:06:20;31.70;87.70
4655;DHT22;2340;47.814;9.798;2023-06-24T14:08:46;31.70;89.10
4655;DHT22;2340;47.814;9.798;2023-06-24T14:11:12;31.80;86.70
4655;DHT22;2340;47.814;9.798;2023-06-24T14:13:38;31.80;84.50
4655;DHT22;2340;47.814;9.798;2023-06-24T14:16:04;31.80;86.20
4655;DHT22;2340;47.814;9.798;2023-06-24T14:18:29;31.80;85.40
4655;DHT22;2340;47.814;9.798;2023-06-24T14:21:02;31.90;86.40
4655;DHT22;2340;47.814;9.798;2023-06-24T14:23:31;32.00;86.10
4655;DHT22;2340;47.814;9.798;2023-06-24T14:25:57;32.10;87.50
4655;DHT22;2340;47.814;9.798;2023-06-24T14:28:24;32.20;86.10
4655;DHT22;2340;47.814;9.798;2023-06-24T14:30:50;32.20;86.80
4655;DHT22;2340;47.814;9.798;2023-06-24T14:33:16;32.20;84.30
4655;DHT22;2340;47.814;9.798;2023-06-24T14:35:42;32.20;83.80
4655;DHT22;2340;47.814;9.798;2023-06-24T14:38:07;32.00;84.30
4655;DHT22;2340;47.814;9.798;2023-06-24T14:40:33;31.70;84.30
4655;DHT22;2340;47.814;9.798;2023-06-24T14:42:59;31.70;84.60
4655;DHT22;2340;47.814;9.798;2023-06-24T14:45:25;31.70;83.20
4655;DHT22;2340;47.814;9.798;2023-06-24T14:47:51;31.80;85.00
4655;DHT22;2340;47.814;9.798;2023-06-24T14:50:17;31.80;84.80
4655;DHT22;2340;47.814;9.798;2023-06-24T14:52:43;31.70;85.00
4655;DHT22;2340;47.814;9.798;2023-06-24T14:55:09;31.50;85.70
4655;DHT22;2340;47.814;9.798;2023-06-24T14:57:35;31.50;84.60
4655;DHT22;2340;47.814;9.798;2023-06-24T15:00:02;31.50;85.40
4655;DHT22;2340;47.814;9.798;2023-06-24T15:02:28;31.60;83.70
4655;DHT22;2340;47.814;9.798;2023-06-24T15:04:53;31.60;83.60
4655;DHT22;2340;47.814;9.798;2023-06-24T15:07:19;31.50;84.20
4655;DHT22;2340;47.814;9.798;2023-06-24T15:09:44;31.50;83.10
4655;DHT22;2340;47.814;9.798;2023-06-24T15:12:10;31.60;82.80
4655;DHT22;2340;47.814;9.798;2023-06-24T15:14:36;31.50;83.70
4655;DHT22;2340;47.814;9.798;2023-06-24T15:17:02;31.40;81.20
4655;DHT22;2340;47.814;9.798;2023-06-24T15:19:27;31.20;82.90
4655;DHT22;2340;47.814;9.798;2023-06-24T15:21:53;31.10;83.90
4655;DHT22;2340;47.814;9.798;2023-06-24T15:24:19;31.00;83.00
4655;DHT22;2340;47.814;9.798;2023-06-24T15:26:44;30.80;83.60
4655;DHT22;2340;47.814;9.798;2023-06-24T15:29:10;30.70;82.70
4655;DHT22;2340;47.814;9.798;2023-06-24T15:31:35;30.60;82.40
4655;DHT22;2340;47.814;9.798;2023-06-24T15:34:01;30.60;85.10
4655;DHT22;2340;47.814;9.798;2023-06-24T15:36:27;30.60;83.80
4655;DHT22;2340;47.814;9.798;2023-06-24T15:38:54;30.60;83.90
4655;DHT22;2340;47.814;9.798;2023-06-24T15:41:20;30.50;83.90
4655;DHT22;2340;47.814;9.798;2023-06-24T15:43:46;30.40;85.60
4655;DHT22;2340;47.814;9.798;2023-06-24T15:46:11;30.20;84.90
4655;DHT22;2340;47.814;9.798;2023-06-24T15:48:37;30.10;84.80
4655;DHT22;2340;47.814;9.798;2023-06-24T15:51:03;30.00;84.30
4655;DHT22;2340;47.814;9.798;2023-06-24T15:53:29;29.90;83.50
4655;DHT22;2340;47.814;9.798;2023-06-24T15:55:55;29.80;84.10
4655;DHT22;2340;47.814;9.798;2023-06-24T15:58:20;29.80;83.80
4655;DHT22;2340;47.814;9.798;2023-06-24T16:00:46;29.80;84.50
4655;DHT22;2340;47.814;9.798;2023-06-24T16:03:11;29.80;84.40
4655;DHT22;2340;47.814;9.798;2023-06-24T16:05:37;29.70;84.80
4655;DHT22;2340;47.814;9.798;2023-06-24T16:08:03;29.60;85.10
4655;DHT22;2340;47.814;9.798;2023-06-24T16:10:29;29.50;85.00
4655;DHT22;2340;47.814;9.798;2023-06-24T16:12:55;29.40;84.00
4655;DHT22;2340;47.814;9.798;2023-06-24T16:15:21;29.20;85.70
4655;DHT22;2340;47.814;9.798;2023-06-24T16:17:46;29.20;86.60
4655;DHT22;2340;47.814;9.798;2023-06-24T16:20:12;29.20;88.60
4655;DHT22;2340;47.814;9.798;2023-06-24T16:22:42;29.10;86.10
4655;DHT22;2340;47.814;9.798;2023-06-24T16:25:08;29.00;86.80
4655;DHT22;2340;47.814;9.798;2023-06-24T16:27:34;29.00;87.10
4655;DHT22;2340;47.814;9.798;2023-06-24T16:29:59;29.00;87.80
4655;DHT22;2340;47.814;9.798;2023-06-24T16:32:25;28.90;88.10
4655;DHT22;2340;47.814;9.798;2023-06-24T16:34:50;28.90;88.00